sensor_id;sensor_type;location;lat;lon;timestamp;pressure;altitude;pressure_sealevel;temperature;humidity
25498;BME280;13406;53.380;7.226;2022-07-01T00:01:48;101315.75;;;16.99;100.00
25498;BME280;13406;53.380;7.226;2022-07-01T00:04:15;101338.91;;;17.13;100.00
25498;BME280;13406;53.380;7.226;2022-07-01T00:06:40;101348.88;;;17.31;100.00
25498;BME280;13406;53.380;7.226;2022-07-01T00:09:05;101250.19;;;16.78;100.00
25498;BME280;13406;53.380;7.226;2022-07-01T00:11:31;101265.00;;;16.76;100.00
25498;BME280;13406;53.380;7.226;2022-07-01T00:13:57;101311.38;;;16.98;100.00
25498;BME280;13406;53.380;7.226;2022-07-01T00:16:22;101323.28;;;16.97;100.00
25498;BME280;13406;53.380;7.226;2022-07-01T00:18:48;101265.88;;;16.88;100.00
25498;BME280;13406;53.380;7.226;2022-07-01T00:21:13;101290.50;;;16.68;100.00
25498;BME280;13406;53.380;7.226;2022-07-01T00:23:40;101333.16;;;17.21;100.00
25498;BME280;13406;53.380;7.226;2022-07-01T00:26:06;101288.84;;;16.67;100.00
25498;BME280;13406;53.380;7.226;2022-07-01T00:28:31;101333.31;;;16.78;100.00
25498;BME280;13406;53.380;7.226;2022-07-01T00:30:57;101322.41;;;16.84;100.00
25498;BME280;13406;53.380;7.226;2022-07-01T00:33:22;101335.47;;;16.69;100.00
25498;BME280;13406;53.380;7.226;2022-07-01T00:35:47;101362.03;;;16.97;100.00
25498;BME280;13406;53.380;7.226;2022-07-01T00:38:13;101356.88;;;16.96;100.00
25498;BME280;13406;53.380;7.226;2022-07-01T00:40:38;101352.53;;;16.76;100.00
25498;BME280;13406;53.380;7.226;2022-07-01T00:43:04;101335.34;;;16.82;100.00
25498;BME280;13406;53.380;7.226;2022-07-01T00:45:30;101310.22;;;16.57;100.00
25498;BME280;13406;53.380;7.226;2022-07-01T00:47:55;101272.41;;;16.50;100.00
25498;BME280;13406;53.380;7.226;2022-07-01T00:50:21;101302.50;;;16.79;100.00
25498;BME280;13406;53.380;7.226;2022-07-01T00:52:46;101214.16;;;16.29;100.00
25498;BME280;13406;53.380;7.226;2022-07-01T00:55:13;101306.16;;;16.84;100.00
25498;BME280;13406;53.380;7.226;2022-07-01T00:57:41;101322.41;;;16.84;100.00
25498;BME280;13406;53.380;7.226;2022-07-01T01:00:10;101315.63;;;16.75;100.00
25498;BME280;13406;53.380;7.226;2022-07-01T01:02:37;101312.94;;;16.75;100.00
25498;BME280;13406;53.380;7.226;2022-07-01T01:05:04;101341.75;;;16.88;100.00
25498;BME280;13406;53.380;7.226;2022-07-01T01:07:31;101349.88;;;16.88;100.00
25498;BME280;13406;53.380;7.226;2022-07-01T01:09:56;101313.09;;;16.43;100.00
25498;BME280;13406;53.380;7.226;2022-07-01T01:12:25;101334.91;;;16.85;100.00
25498;BME280;13406;53.380;7.226;2022-07-01T01:14:50;101308.31;;;16.94;100.00
25498;BME280;13406;53.380;7.226;2022-07-01T01:17:18;101315.84;;;16.73;100.00
25498;BME280;13406;53.380;7.226;2022-07-01T01:19:44;101354.56;;;16.81;100.00
25498;BME280;13406;53.380;7.226;2022-07-01T01:22:11;101368.75;;;16.58;100.00
25498;BME280;13406;53.380;7.226;2022-07-01T01:24:39;101323.06;;;16.43;100.00
25498;BME280;13406;53.380;7.226;2022-07-01T01:27:05;101386.03;;;16.57;100.00
25498;BME280;13406;53.380;7.226;2022-07-01T01:29:31;101347.91;;;16.40;100.00
25498;BME280;13406;53.380;7.226;2022-07-01T01:31:56;101367.38;;;16.48;100.00
25498;BME280;13406;53.380;7.226;2022-07-01T01:34:22;101378.34;;;16.79;100.00
25498;BME280;13406;53.380;7.226;2022-07-01T01:36:47;101381.25;;;16.59;100.00
25498;BME280;13406;53.380;7.226;2022-07-01T01:39:13;101394.78;;;16.59;100.00
25498;BME280;13406;53.380;7.226;2022-07-01T01:41:42;101392.06;;;16.59;100.00
25498;BME280;13406;53.380;7.226;2022-07-01T01:44:08;101388.75;;;16.57;100.00
25498;BME280;13406;53.380;7.226;2022-07-01T01:46:33;101364.22;;;16.15;100.00
25498;BME280;13406;53.380;7.226;2022-07-01T01:49:00;101402.47;;;16.62;100.00
25498;BME280;13406;53.380;7.226;2022-07-01T01:51:26;101393.53;;;16.80;100.00
25498;BME280;13406;53.380;7.226;2022-07-01T01:53:52;101377.63;;;16.46;100.00
25498;BME280;13406;53.380;7.226;2022-07-01T01:56:17;101336.03;;;16.41;100.00
25498;BME280;13406;53.380;7.226;2022-07-01T01:58:42;101361.50;;;16.52;100.00
25498;BME280;13406;53.380;7.226;2022-07-01T02:01:10;101373.19;;;16.52;100.00
25498;BME280;13406;53.380;7.226;2022-07-01T02:03:36;101382.22;;;16.64;100.00
25498;BME280;13406;53.380;7.226;2022-07-01T02:06:03;101354.16;;;16.40;100.00
25498;BME280;13406;53.380;7.226;2022-07-01T02:08:29;101362.50;;;16.39;100.00
25498;BME280;13406;53.380;7.226;2022-07-01T02:10:55;101365.94;;;16.46;100.00
25498;BME280;13406;53.380;7.226;2022-07-01T02:13:20;101338.97;;;16.58;100.00
25498;BME280;13406;53.380;7.226;2022-07-01T02:15:45;101371.16;;;16.66;100.00
25498;BME280;13406;53.380;7.226;2022-07-01T02:18:11;101364.91;;;16.65;100.00
25498;BME280;13406;53.380;7.226;2022-07-01T02:20:36;101368.25;;;16.49;100.00
25498;BME280;13406;53.380;7.226;2022-07-01T02:23:02;101377.72;;;16.58;100.00
25498;BME280;13406;53.380;7.226;2022-07-01T02:25:27;101360.41;;;16.41;100.00
25498;BME280;13406;53.380;7.226;2022-07-01T02:27:53;101361.59;;;16.45;100.00
25498;BME280;13406;53.380;7.226;2022-07-01T02:30:18;101358.34;;;16.36;100.00
25498;BME280;13406;53.380;7.226;2022-07-01T02:32:43;101323.81;;;16.13;100.00
25498;BME280;13406;53.380;7.226;2022-07-01T02:35:09;101376.03;;;16.20;100.00
25498;BME280;13406;53.380;7.226;2022-07-01T02:37:35;101348.72;;;16.22;100.00
25498;BME280;13406;53.380;7.226;2022-07-01T02:40:02;101388.78;;;16.75;100.00
25498;BME280;13406;53.380;7.226;2022-07-01T02:42:28;101302.03;;;16.26;100.00
25498;BME280;13406;53.380;7.226;2022-07-01T02:44:56;101405.25;;;16.73;100.00
25498;BME280;13406;53.380;7.226;2022-07-01T02:47:22;101400.44;;;16.76;100.00
25498;BME280;13406;53.380;7.226;2022-07-01T02:49:49;101305.78;;;16.25;100.00
25498;BME280;13406;53.380;7.226;2022-07-01T02:52:14;101419.72;;;16.42;100.00
25498;BME280;13406;53.380;7.226;2022-07-01T02:54:41;101417.53;;;16.33;100.00
25498;BME280;13406;53.380;7.226;2022-07-01T02:57:07;101423.22;;;16.49;100.00
25498;BME280;13406;53.380;7.226;2022-07-01T02:59:33;101418.38;;;16.33;100.00
25498;BME280;13406;53.380;7.226;2022-07-01T03:01:58;101428.38;;;16.51;100.00
25498;BME280;13406;53.380;7.226;2022-07-01T03:04:24;101405.56;;;16.22;100.00
25498;BME280;13406;53.380;7.226;2022-07-01T03:06:49;101379.47;;;16.09;100.00
25498;BME280;13406;53.380;7.226;2022-07-01T03:09:14;101391.78;;;15.80;100.00
25498;BME280;13406;53.380;7.226;2022-07-01T03:11:40;101424.06;;;16.25;100.00
25498;BME280;13406;53.380;7.226;2022-07-01T03:14:05;101425.13;;;16.24;100.00
25498;BME280;13406;53.380;7.226;2022-07-01T03:16:31;101386.69;;;16.15;100.00
25498;BME280;13406;53.380;7.226;2022-07-01T03:18:56;101411.88;;;16.34;100.00
25498;BME280;13406;53.380;7.226;2022-07-01T03:21:22;101392.31;;;16.14;100.00
25498;BME280;13406;53.380;7.226;2022-07-01T03:23:48;101424.28;;;16.23;100.00
25498;BME280;13406;53.380;7.226;2022-07-01T03:26:13;101395.19;;;16.19;100.00
25498;BME280;13406;53.380;7.226;2022-07-01T03:28:40;101421.94;;;16.52;100.00
25498;BME280;13406;53.380;7.226;2022-07-01T03:31:05;101423.66;;;15.96;100.00
25498;BME280;13406;53.380;7.226;2022-07-01T03:33:31;101431.16;;;16.26;100.00
25498;BME280;13406;53.380;7.226;2022-07-01T03:35:56;101442.91;;;16.38;100.00
25498;BME280;13406;53.380;7.226;2022-07-01T03:38:21;101431.16;;;16.26;100.00
25498;BME280;13406;53.380;7.226;2022-07-01T03:40:47;101415.03;;;16.31;100.00
25498;BME280;13406;53.380;7.226;2022-07-01T03:43:12;101346.16;;;15.84;100.00
25498;BME280;13406;53.380;7.226;2022-07-01T03:45:38;101407.34;;;16.10;100.00
25498;BME280;13406;53.380;7.226;2022-07-01T03:48:05;101439.06;;;16.46;100.00
25498;BME280;13406;53.380;7.226;2022-07-01T03:50:30;101406.16;;;15.99;100.00
25498;BME280;13406;53.380;7.226;2022-07-01T03:52:56;101435.00;;;16.12;100.00
25498;BME280;13406;53.380;7.226;2022-07-01T03:55:41;101448.47;;;16.18;100.00
25498;BME280;13406;53.380;7.226;2022-07-01T03:58:06;101465.72;;;16.24;100.00
25498;BME280;13406;53.380;7.226;2022-07-01T04:00:34;101448.47;;;16.18;100.00
25498;BME280;13406;53.380;7.226;2022-07-01T04:03:00;101434.94;;;15.93;100.00
25498;BME280;13406;53.380;7.226;2022-07-01T04:05:26;101447.78;;;15.73;100.00
25498;BME280;13406;53.380;7.226;2022-07-01T04:07:52;101476.34;;;15.94;100.00
25498;BME280;13406;53.380;7.226;2022-07-01T04:10:17;101467.25;;;15.88;100.00
25498;BME280;13406;53.380;7.226;2022-07-01T04:12:43;101487.00;;;16.20;100.00
25498;BME280;13406;53.380;7.226;2022-07-01T04:15:09;101407.56;;;15.45;100.00
25498;BME280;13406;53.380;7.226;2022-07-01T04:17:35;101469.28;;;15.54;100.00
25498;BME280;13406;53.380;7.226;2022-07-01T04:20:01;101480.41;;;16.10;100.00
25498;BME280;13406;53.380;7.226;2022-07-01T04:22:27;101374.91;;;15.46;100.00
25498;BME280;13406;53.380;7.226;2022-07-01T04:25:02;101468.34;;;15.80;100.00
25498;BME280;13406;53.380;7.226;2022-07-01T04:27:29;101502.31;;;16.01;100.00
25498;BME280;13406;53.380;7.226;2022-07-01T04:29:54;101510.44;;;16.01;100.00
25498;BME280;13406;53.380;7.226;2022-07-01T04:32:20;101426.38;;;15.65;100.00
25498;BME280;13406;53.380;7.226;2022-07-01T04:34:45;101506.03;;;16.07;100.00
25498;BME280;13406;53.380;7.226;2022-07-01T04:37:11;101509.72;;;16.13;100.00
25498;BME280;13406;53.380;7.226;2022-07-01T04:39:37;101505.84;;;16.02;100.00
25498;BME280;13406;53.380;7.226;2022-07-01T04:42:03;101495.56;;;16.17;100.00
25498;BME280;13406;53.380;7.226;2022-07-01T04:44:34;101513.38;;;16.25;100.00
25498;BME280;13406;53.380;7.226;2022-07-01T04:47:01;101523.69;;;16.10;100.00
25498;BME280;13406;53.380;7.226;2022-07-01T04:49:27;101516.50;;;15.97;100.00
25498;BME280;13406;53.380;7.226;2022-07-01T04:51:52;101519.03;;;16.23;100.00
25498;BME280;13406;53.380;7.226;2022-07-01T04:54:18;101507.16;;;15.93;100.00
25498;BME280;13406;53.380;7.226;2022-07-01T04:56:44;101503.78;;;15.59;100.00
25498;BME280;13406;53.380;7.226;2022-07-01T04:59:11;101553.22;;;16.11;100.00
25498;BME280;13406;53.380;7.226;2022-07-01T05:01:37;101499.03;;;15.54;100.00
25498;BME280;13406;53.380;7.226;2022-07-01T05:04:02;101557.63;;;16.12;100.00
25498;BME280;13406;53.380;7.226;2022-07-01T05:06:28;101552.66;;;16.09;100.00
25498;BME280;13406;53.380;7.226;2022-07-01T05:08:53;101556.94;;;16.23;100.00
25498;BME280;13406;53.380;7.226;2022-07-01T05:11:19;101530.19;;;16.02;100.00
25498;BME280;13406;53.380;7.226;2022-07-01T05:13:44;101562.03;;;16.07;100.00
25498;BME280;13406;53.380;7.226;2022-07-01T05:16:10;101569.78;;;15.96;100.00
25498;BME280;13406;53.380;7.226;2022-07-01T05:18:39;101528.78;;;15.54;100.00
25498;BME280;13406;53.380;7.226;2022-07-01T05:21:23;101510.84;;;15.60;100.00
25498;BME280;13406;53.380;7.226;2022-07-01T05:24:07;101585.91;;;15.78;100.00
25498;BME280;13406;53.380;7.226;2022-07-01T05:26:35;101562.03;;;15.55;100.00
25498;BME280;13406;53.380;7.226;2022-07-01T05:29:04;101550.41;;;15.54;100.00
25498;BME280;13406;53.380;7.226;2022-07-01T05:31:30;101395.00;;;14.74;100.00
25498;BME280;13406;53.380;7.226;2022-07-01T05:33:58;101595.13;;;15.50;100.00
25498;BME280;13406;53.380;7.226;2022-07-01T05:36:23;101605.84;;;15.84;100.00
25498;BME280;13406;53.380;7.226;2022-07-01T05:38:49;101589.47;;;15.65;100.00
25498;BME280;13406;53.380;7.226;2022-07-01T05:41:14;101548.78;;;15.40;100.00
25498;BME280;13406;53.380;7.226;2022-07-01T05:43:41;101592.25;;;15.45;100.00
25498;BME280;13406;53.380;7.226;2022-07-01T05:46:06;101582.63;;;15.63;100.00
25498;BME280;13406;53.380;7.226;2022-07-01T05:48:31;101596.41;;;15.48;100.00
25498;BME280;13406;53.380;7.226;2022-07-01T05:50:57;101615.66;;;15.78;100.00
25498;BME280;13406;53.380;7.226;2022-07-01T05:53:22;101574.97;;;15.46;100.00
25498;BME280;13406;53.380;7.226;2022-07-01T05:55:47;101591.13;;;15.66;100.00
25498;BME280;13406;53.380;7.226;2022-07-01T05:58:14;101606.06;;;15.82;100.00
25498;BME280;13406;53.380;7.226;2022-07-01T06:00:39;101605.22;;;15.88;100.00
25498;BME280;13406;53.380;7.226;2022-07-01T06:03:09;101585.31;;;15.63;100.00
25498;BME280;13406;53.380;7.226;2022-07-01T06:05:35;101607.22;;;15.99;100.00
25498;BME280;13406;53.380;7.226;2022-07-01T06:08:01;101579.84;;;15.82;100.00
25498;BME280;13406;53.380;7.226;2022-07-01T06:10:26;101608.56;;;15.84;100.00
25498;BME280;13406;53.380;7.226;2022-07-01T06:12:52;101598.34;;;15.86;100.00
25498;BME280;13406;53.380;7.226;2022-07-01T06:15:17;101609.81;;;15.81;100.00
25498;BME280;13406;53.380;7.226;2022-07-01T06:17:43;101613.41;;;15.68;100.00
25498;BME280;13406;53.380;7.226;2022-07-01T06:20:08;101605.09;;;16.08;100.00
25498;BME280;13406;53.380;7.226;2022-07-01T06:22:34;101612.78;;;15.53;100.00
25498;BME280;13406;53.380;7.226;2022-07-01T06:25:00;101543.66;;;15.12;100.00
25498;BME280;13406;53.380;7.226;2022-07-01T06:27:26;101598.06;;;15.35;100.00
25498;BME280;13406;53.380;7.226;2022-07-01T06:29:51;101609.22;;;15.59;100.00
25498;BME280;13406;53.380;7.226;2022-07-01T06:32:17;101625.38;;;15.92;100.00
25498;BME280;13406;53.380;7.226;2022-07-01T06:34:43;101629.28;;;15.96;100.00
25498;BME280;13406;53.380;7.226;2022-07-01T06:37:08;101550.03;;;15.37;100.00
25498;BME280;13406;53.380;7.226;2022-07-01T06:39:34;101601.13;;;15.59;100.00
25498;BME280;13406;53.380;7.226;2022-07-01T06:41:59;101605.09;;;15.56;100.00
25498;BME280;13406;53.380;7.226;2022-07-01T06:44:25;101603.66;;;15.54;100.00
25498;BME280;13406;53.380;7.226;2022-07-01T06:46:50;101620.66;;;15.68;100.00
25498;BME280;13406;53.380;7.226;2022-07-01T06:49:17;101593.19;;;15.64;100.00
25498;BME280;13406;53.380;7.226;2022-07-01T06:51:42;101609.44;;;15.64;100.00
25498;BME280;13406;53.380;7.226;2022-07-01T06:54:07;101599.81;;;15.81;100.00
25498;BME280;13406;53.380;7.226;2022-07-01T06:56:34;101555.13;;;15.72;100.00
25498;BME280;13406;53.380;7.226;2022-07-01T06:58:59;101496.13;;;15.49;100.00
25498;BME280;13406;53.380;7.226;2022-07-01T07:01:25;101588.91;;;16.01;100.00
25498;BME280;13406;53.380;7.226;2022-07-01T07:03:50;101590.16;;;16.06;100.00
25498;BME280;13406;53.380;7.226;2022-07-01T07:06:16;101588.69;;;16.03;100.00
25498;BME280;13406;53.380;7.226;2022-07-01T07:08:41;101568.59;;;15.86;100.00
25498;BME280;13406;53.380;7.226;2022-07-01T07:11:07;101589.78;;;15.95;100.00
25498;BME280;13406;53.380;7.226;2022-07-01T07:13:34;101548.81;;;15.85;100.00
25498;BME280;13406;53.380;7.226;2022-07-01T07:16:00;101504.47;;;15.48;100.00
25498;BME280;13406;53.380;7.226;2022-07-01T07:18:25;101581.34;;;16.10;100.00
25498;BME280;13406;53.380;7.226;2022-07-01T07:20:51;101573.13;;;16.30;100.00
25498;BME280;13406;53.380;7.226;2022-07-01T07:23:16;101584.19;;;16.22;100.00
25498;BME280;13406;53.380;7.226;2022-07-01T07:25:42;101589.97;;;16.57;100.00
25498;BME280;13406;53.380;7.226;2022-07-01T07:28:07;101561.28;;;16.24;100.00
25498;BME280;13406;53.380;7.226;2022-07-01T07:30:33;101577.19;;;16.14;100.00
25498;BME280;13406;53.380;7.226;2022-07-01T07:32:58;101570.22;;;16.25;100.00
25498;BME280;13406;53.380;7.226;2022-07-01T07:35:23;101563.50;;;16.59;100.00
25498;BME280;13406;53.380;7.226;2022-07-01T07:37:49;101595.25;;;17.02;100.00
25498;BME280;13406;53.380;7.226;2022-07-01T07:40:15;101563.41;;;16.72;100.00
25498;BME280;13406;53.380;7.226;2022-07-01T07:42:44;101609.88;;;17.01;100.00
25498;BME280;13406;53.380;7.226;2022-07-01T07:45:11;101613.50;;;17.13;100.00
25498;BME280;13406;53.380;7.226;2022-07-01T07:47:42;101622.38;;;17.02;100.00
25498;BME280;13406;53.380;7.226;2022-07-01T07:50:08;101594.38;;;17.27;100.00
25498;BME280;13406;53.380;7.226;2022-07-01T07:52:34;101604.28;;;17.39;100.00
25498;BME280;13406;53.380;7.226;2022-07-01T07:55:00;101608.84;;;17.57;100.00
25498;BME280;13406;53.380;7.226;2022-07-01T07:57:25;101594.44;;;17.02;100.00
25498;BME280;13406;53.380;7.226;2022-07-01T07:59:50;101589.44;;;16.73;100.00
25498;BME280;13406;53.380;7.226;2022-07-01T08:02:16;101612.50;;;16.89;100.00
25498;BME280;13406;53.380;7.226;2022-07-01T08:04:41;101586.81;;;16.92;100.00
25498;BME280;13406;53.380;7.226;2022-07-01T08:07:07;101530.19;;;16.59;100.00
25498;BME280;13406;53.380;7.226;2022-07-01T08:09:32;101626.28;;;17.06;100.00
25498;BME280;13406;53.380;7.226;2022-07-01T08:12:00;101623.72;;;16.93;100.00
25498;BME280;13406;53.380;7.226;2022-07-01T08:14:26;101631.78;;;17.18;100.00
25498;BME280;13406;53.380;7.226;2022-07-01T08:16:52;101622.03;;;17.35;100.00
25498;BME280;13406;53.380;7.226;2022-07-01T08:19:17;101572.22;;;17.11;100.00
25498;BME280;13406;53.380;7.226;2022-07-01T08:21:42;101579.63;;;17.41;100.00
25498;BME280;13406;53.380;7.226;2022-07-01T08:24:08;101548.22;;;17.15;100.00
25498;BME280;13406;53.380;7.226;2022-07-01T08:26:33;101628.50;;;17.16;100.00
25498;BME280;13406;53.380;7.226;2022-07-01T08:28:59;101641.91;;;17.29;100.00
25498;BME280;13406;53.380;7.226;2022-07-01T08:31:24;101624.41;;;17.50;100.00
25498;BME280;13406;53.380;7.226;2022-07-01T08:33:50;101599.00;;;17.63;100.00
25498;BME280;13406;53.380;7.226;2022-07-01T08:36:15;101612.09;;;17.29;100.00
25498;BME280;13406;53.380;7.226;2022-07-01T08:38:41;101640.13;;;17.60;100.00
25498;BME280;13406;53.380;7.226;2022-07-01T08:41:06;101604.94;;;17.72;100.00
25498;BME280;13406;53.380;7.226;2022-07-01T08:43:33;101629.28;;;17.60;100.00
25498;BME280;13406;53.380;7.226;2022-07-01T08:46:00;101581.06;;;16.82;100.00
25498;BME280;13406;53.380;7.226;2022-07-01T08:48:29;101641.28;;;17.71;100.00
25498;BME280;13406;53.380;7.226;2022-07-01T08:50:55;101626.13;;;18.00;100.00
25498;BME280;13406;53.380;7.226;2022-07-01T08:53:21;101602.75;;;17.62;100.00
25498;BME280;13406;53.380;7.226;2022-07-01T08:55:46;101505.94;;;17.44;100.00
25498;BME280;13406;53.380;7.226;2022-07-01T08:58:30;101632.88;;;17.72;100.00
25498;BME280;13406;53.380;7.226;2022-07-01T09:01:19;101659.19;;;17.53;100.00
25498;BME280;13406;53.380;7.226;2022-07-01T09:03:53;101595.81;;;17.66;100.00
25498;BME280;13406;53.380;7.226;2022-07-01T09:06:19;101650.91;;;17.67;100.00
25498;BME280;13406;53.380;7.226;2022-07-01T09:08:46;101656.09;;;18.05;100.00
25498;BME280;13406;53.380;7.226;2022-07-01T09:11:20;101659.69;;;17.44;100.00
25498;BME280;13406;53.380;7.226;2022-07-01T09:14:04;101624.25;;;17.02;100.00
25498;BME280;13406;53.380;7.226;2022-07-01T09:16:51;101605.28;;;17.20;100.00
25498;BME280;13406;53.380;7.226;2022-07-01T09:19:19;101619.97;;;17.12;100.00
25498;BME280;13406;53.380;7.226;2022-07-01T09:22:04;101634.72;;;17.97;100.00
25498;BME280;13406;53.380;7.226;2022-07-01T09:24:37;101632.72;;;18.04;100.00
25498;BME280;13406;53.380;7.226;2022-07-01T09:27:08;101651.78;;;17.86;100.00
25498;BME280;13406;53.380;7.226;2022-07-01T09:29:44;101674.09;;;17.44;100.00
25498;BME280;13406;53.380;7.226;2022-07-01T09:32:12;101676.31;;;17.54;100.00
25498;BME280;13406;53.380;7.226;2022-07-01T09:34:47;101680.03;;;17.34;100.00
25498;BME280;13406;53.380;7.226;2022-07-01T09:37:23;101689.34;;;17.20;100.00
25498;BME280;13406;53.380;7.226;2022-07-01T09:39:56;101695.09;;;17.30;100.00
25498;BME280;13406;53.380;7.226;2022-07-01T09:42:25;101671.69;;;17.36;100.00
25498;BME280;13406;53.380;7.226;2022-07-01T09:44:58;101693.69;;;17.65;100.00
25498;BME280;13406;53.380;7.226;2022-07-01T09:47:25;101708.41;;;17.32;100.00
25498;BME280;13406;53.380;7.226;2022-07-01T09:49:51;101704.13;;;17.24;100.00
25498;BME280;13406;53.380;7.226;2022-07-01T09:52:17;101709.69;;;17.29;100.00
25498;BME280;13406;53.380;7.226;2022-07-01T09:54:46;101686.53;;;17.08;100.00
25498;BME280;13406;53.380;7.226;2022-07-01T09:57:15;101692.78;;;17.09;100.00
25498;BME280;13406;53.380;7.226;2022-07-01T09:59:41;101701.53;;;17.54;100.00
25498;BME280;13406;53.380;7.226;2022-07-01T10:02:11;101697.09;;;17.42;100.00
25498;BME280;13406;53.380;7.226;2022-07-01T10:04:38;101718.59;;;17.36;100.00
25498;BME280;13406;53.380;7.226;2022-07-01T10:09:48;101723.22;;;17.79;100.00
25498;BME280;13406;53.380;7.226;2022-07-01T10:12:33;101719.63;;;17.86;100.00
25498;BME280;13406;53.380;7.226;2022-07-01T10:15:00;101682.66;;;18.03;100.00
25498;BME280;13406;53.380;7.226;2022-07-01T10:17:31;101704.19;;;18.35;100.00
25498;BME280;13406;53.380;7.226;2022-07-01T10:22:35;101705.00;;;18.35;100.00
25498;BME280;13406;53.380;7.226;2022-07-01T10:28:20;101698.34;;;18.31;100.00
25498;BME280;13406;53.380;7.226;2022-07-01T10:36:26;101672.53;;;18.10;100.00
25498;BME280;13406;53.380;7.226;2022-07-01T10:44:04;101635.75;;;17.77;100.00
25498;BME280;13406;53.380;7.226;2022-07-01T10:49:18;101679.03;;;18.69;100.00
25498;BME280;13406;53.380;7.226;2022-07-01T10:51:52;101650.84;;;18.94;100.00
25498;BME280;13406;53.380;7.226;2022-07-01T10:57:36;101649.53;;;18.85;100.00
25498;BME280;13406;53.380;7.226;2022-07-01T11:02:32;101670.75;;;18.64;100.00
25498;BME280;13406;53.380;7.226;2022-07-01T11:05:04;101641.81;;;18.70;100.00
25498;BME280;13406;53.380;7.226;2022-07-01T11:07:32;101644.13;;;19.20;100.00
25498;BME280;13406;53.380;7.226;2022-07-01T11:09:59;101677.81;;;19.54;100.00
25498;BME280;13406;53.380;7.226;2022-07-01T11:12:28;101676.63;;;19.03;100.00
25498;BME280;13406;53.380;7.226;2022-07-01T11:14:56;101671.31;;;19.20;100.00
25498;BME280;13406;53.380;7.226;2022-07-01T11:17:24;101674.97;;;19.14;100.00
25498;BME280;13406;53.380;7.226;2022-07-01T11:19:52;101672.13;;;19.09;100.00
25498;BME280;13406;53.380;7.226;2022-07-01T11:22:24;101660.69;;;19.30;100.00
25498;BME280;13406;53.380;7.226;2022-07-01T11:24:53;101642.13;;;18.92;100.00
25498;BME280;13406;53.380;7.226;2022-07-01T11:27:19;101653.69;;;18.87;100.00
25498;BME280;13406;53.380;7.226;2022-07-01T11:29:54;101649.44;;;19.03;100.00
25498;BME280;13406;53.380;7.226;2022-07-01T11:32:30;101605.84;;;19.10;100.00
25498;BME280;13406;53.380;7.226;2022-07-01T11:34:56;101591.34;;;18.62;100.00
25498;BME280;13406;53.380;7.226;2022-07-01T11:37:21;101568.28;;;18.41;100.00
25498;BME280;13406;53.380;7.226;2022-07-01T11:40:13;101647.31;;;19.29;100.00
25498;BME280;13406;53.380;7.226;2022-07-01T11:42:40;101644.31;;;19.77;100.00
25498;BME280;13406;53.380;7.226;2022-07-01T11:45:06;101643.59;;;20.39;100.00
25498;BME280;13406;53.380;7.226;2022-07-01T11:47:32;101650.88;;;20.05;100.00
25498;BME280;13406;53.380;7.226;2022-07-01T11:49:59;101646.75;;;20.02;100.00
25498;BME280;13406;53.380;7.226;2022-07-01T11:52:25;101513.63;;;18.61;100.00
25498;BME280;13406;53.380;7.226;2022-07-01T11:54:53;101632.72;;;19.58;100.00
25498;BME280;13406;53.380;7.226;2022-07-01T11:57:23;101649.47;;;19.27;100.00
25498;BME280;13406;53.380;7.226;2022-07-01T11:59:52;101616.91;;;19.43;100.00
25498;BME280;13406;53.380;7.226;2022-07-01T12:02:20;101641.69;;;19.94;100.00
25498;BME280;13406;53.380;7.226;2022-07-01T12:04:47;101663.16;;;19.79;100.00
25498;BME280;13406;53.380;7.226;2022-07-01T12:07:15;101675.25;;;19.24;100.00
25498;BME280;13406;53.380;7.226;2022-07-01T12:09:41;101641.56;;;19.89;100.00
25498;BME280;13406;53.380;7.226;2022-07-01T12:12:07;101599.09;;;19.24;100.00
25498;BME280;13406;53.380;7.226;2022-07-01T12:14:39;101651.19;;;19.56;100.00
25498;BME280;13406;53.380;7.226;2022-07-01T12:17:07;101672.31;;;20.01;100.00
25498;BME280;13406;53.380;7.226;2022-07-01T12:22:05;101583.28;;;19.50;100.00
25498;BME280;13406;53.380;7.226;2022-07-01T12:24:32;101665.47;;;20.27;100.00
25498;BME280;13406;53.380;7.226;2022-07-01T12:29:24;101637.25;;;19.53;100.00
25498;BME280;13406;53.380;7.226;2022-07-01T12:32:04;101651.59;;;19.25;100.00
25498;BME280;13406;53.380;7.226;2022-07-01T12:34:48;101687.50;;;19.03;100.00
25498;BME280;13406;53.380;7.226;2022-07-01T12:37:25;101704.75;;;18.55;100.00
25498;BME280;13406;53.380;7.226;2022-07-01T12:39:51;101715.75;;;18.60;100.00
25498;BME280;13406;53.380;7.226;2022-07-01T12:42:27;101725.59;;;18.43;100.00
25498;BME280;13406;53.380;7.226;2022-07-01T12:44:55;101707.63;;;18.42;100.00
25498;BME280;13406;53.380;7.226;2022-07-01T12:47:30;101723.28;;;18.58;100.00
25498;BME280;13406;53.380;7.226;2022-07-01T12:50:16;101730.16;;;18.61;100.00
25498;BME280;13406;53.380;7.226;2022-07-01T12:55:22;101680.81;;;18.45;100.00
25498;BME280;13406;53.380;7.226;2022-07-01T12:57:52;101718.97;;;18.69;100.00
25498;BME280;13406;53.380;7.226;2022-07-01T13:00:19;101691.41;;;18.95;100.00
25498;BME280;13406;53.380;7.226;2022-07-01T13:02:46;101674.38;;;19.12;100.00
25498;BME280;13406;53.380;7.226;2022-07-01T13:05:12;101701.84;;;19.46;100.00
25498;BME280;13406;53.380;7.226;2022-07-01T13:07:39;101674.13;;;19.60;100.00
25498;BME280;13406;53.380;7.226;2022-07-01T13:10:05;101655.72;;;19.51;100.00
25498;BME280;13406;53.380;7.226;2022-07-01T13:12:31;101679.81;;;19.82;100.00
25498;BME280;13406;53.380;7.226;2022-07-01T13:14:56;101653.59;;;19.53;100.00
25498;BME280;13406;53.380;7.226;2022-07-01T13:17:23;101658.06;;;19.82;100.00